This is the latest recevied weather packets stored in our database for station/object HS3UAA-1. If no packets are shown the sender has not sent any weather packets the latest 10 day(s).
| Time | Temp. | Humidity | Pressure | Rain* | Wind** | Luminosity | Snow |
|---|---|---|---|---|---|---|---|
| 1787702792 | 32.78° C | 49% | 995 hPa | - | - | 0 W/m² | - |
| 1787702470 | 32.78° C | 51% | 995 hPa | - | - | 0 W/m² | - |
| 1787701901 | 33.33° C | 49% | 995 hPa | - | - | 0 W/m² | - |
| 1787701579 | 34.44° C | 46% | 995 hPa | - | - | 0 W/m² | - |
| 1787701257 | 33.89° C | 48% | 995 hPa | - | - | 0 W/m² | - |
| 1787700935 | 33.89° C | 47% | 995 hPa | - | - | 0 W/m² | - |
| 1787700613 | 33.33° C | 48% | 995 hPa | - | - | 0 W/m² | - |
| 1787700291 | 33.33° C | 49% | 995 hPa | - | - | 0 W/m² | - |
| 1787699969 | 33.33° C | 48% | 995 hPa | - | - | 0 W/m² | - |
| 1787699647 | 33.33° C | 48% | 995 hPa | - | - | 0 W/m² | - |
| 1787699325 | 33.33° C | 48% | 995 hPa | - | - | 0 W/m² | - |
| 1787699003 | 33.89° C | 47% | 995 hPa | - | - | 0 W/m² | - |
| 1787698681 | 33.33° C | 48% | 995 hPa | - | - | 0 W/m² | - |
| 1787698359 | 33.33° C | 48% | 995 hPa | - | - | 0 W/m² | - |
| 1787698037 | 33.33° C | 48% | 995 hPa | - | - | 0 W/m² | - |
| 1787697715 | 33.89° C | 47% | 995 hPa | - | - | 0 W/m² | - |
| 1787697393 | 33.33° C | 49% | 995 hPa | - | - | 0 W/m² | - |
| 1787697071 | 33.33° C | 48% | 995 hPa | - | - | 0 W/m² | - |
| 1787696749 | 33.89° C | 47% | 995 hPa | - | - | 0 W/m² | - |
| 1787696427 | 33.33° C | 48% | 995 hPa | - | - | 0 W/m² | - |
| 1787696105 | 33.33° C | 48% | 995 hPa | - | - | 0 W/m² | - |
| 1787695783 | 33.89° C | 47% | 995 hPa | - | - | 0 W/m² | - |
| 1787695461 | 33.89° C | 47% | 995 hPa | - | - | 0 W/m² | - |
| 1787695139 | 33.33° C | 48% | 995 hPa | - | - | 0 W/m² | - |
| 1787694576 | 33.33° C | 48% | 995 hPa | - | - | 0 W/m² | - |
* Rain since midnight (hover to see other rain measurements)
** Current wind speed in m/s (hover to see current wind gust speed)